Terminal Aerodrome Forecast
Issued by NWS

Home | Current Version | Previous Version | Text Only | Print | Product List | Glossary On
Versions: 1 2 3 4 5 6 7 8 9 10 11 12 13 14 15 16 17 18 19 20 21 22 23 24 25 26 27 28 29
588
FTUS42 KCAE 211120
TAFCUB
TAF
KCUB 211120Z 2112/2212 VRB03KT P6SM BKN200
      TEMPO 2112/2115 SCT006
     FM211700 14005KT P6SM SCT035 BKN200
     FM212300 10003KT P6SM BKN030 OVC045
     FM220200 11003KT P6SM VCSH BKN020 OVC030
     FM220600 11003KT 6SM BR VCSH OVC015
     FM221100 10003KT 1SM BR VCSH OVC005=

USA.gov is the U.S. government's official web portal to all federal, state and local government web resources and services.